sensor_id;sensor_type;location;lat;lon;timestamp;temperature;humidity
51914;DHT22;37940;53.002;6.930;2022-08-19T00:01:29;14.60;99.90
51914;DHT22;37940;53.002;6.930;2022-08-19T00:04:00;14.60;99.90
51914;DHT22;37940;53.002;6.930;2022-08-19T00:06:27;14.60;99.90
51914;DHT22;37940;53.002;6.930;2022-08-19T00:08:53;14.60;99.90
51914;DHT22;37940;53.002;6.930;2022-08-19T00:11:19;14.50;99.90
51914;DHT22;37940;53.002;6.930;2022-08-19T00:13:46;14.50;99.90
51914;DHT22;37940;53.002;6.930;2022-08-19T00:16:14;14.60;99.90
51914;DHT22;37940;53.002;6.930;2022-08-19T00:18:40;14.50;99.90
51914;DHT22;37940;53.002;6.930;2022-08-19T00:21:06;14.50;99.90
51914;DHT22;37940;53.002;6.930;2022-08-19T00:23:34;14.50;99.90
51914;DHT22;37940;53.002;6.930;2022-08-19T00:26:05;14.50;99.90
51914;DHT22;37940;53.002;6.930;2022-08-19T00:28:32;14.50;99.90
51914;DHT22;37940;53.002;6.930;2022-08-19T00:30:59;14.50;99.90
51914;DHT22;37940;53.002;6.930;2022-08-19T00:33:25;14.40;99.90
51914;DHT22;37940;53.002;6.930;2022-08-19T00:35:51;14.40;99.90
51914;DHT22;37940;53.002;6.930;2022-08-19T00:38:17;14.40;99.90
51914;DHT22;37940;53.002;6.930;2022-08-19T00:40:43;14.40;99.90
51914;DHT22;37940;53.002;6.930;2022-08-19T00:43:12;14.40;99.90
51914;DHT22;37940;53.002;6.930;2022-08-19T00:45:41;14.40;99.90
51914;DHT22;37940;53.002;6.930;2022-08-19T00:48:09;14.40;99.90
51914;DHT22;37940;53.002;6.930;2022-08-19T00:50:35;14.40;99.90
51914;DHT22;37940;53.002;6.930;2022-08-19T00:53:02;14.40;99.90
51914;DHT22;37940;53.002;6.930;2022-08-19T00:55:28;14.30;99.90
51914;DHT22;37940;53.002;6.930;2022-08-19T00:58:10;14.30;99.90
51914;DHT22;37940;53.002;6.930;2022-08-19T01:00:37;14.20;99.90
51914;DHT22;37940;53.002;6.930;2022-08-19T01:03:07;14.30;99.90
51914;DHT22;37940;53.002;6.930;2022-08-19T01:05:35;14.20;99.90
51914;DHT22;37940;53.002;6.930;2022-08-19T01:08:03;14.20;99.90
51914;DHT22;37940;53.002;6.930;2022-08-19T01:10:32;14.20;99.90
51914;DHT22;37940;53.002;6.930;2022-08-19T01:13:01;14.20;99.90
51914;DHT22;37940;53.002;6.930;2022-08-19T01:15:31;14.10;99.90
51914;DHT22;37940;53.002;6.930;2022-08-19T01:18:00;14.20;99.90
51914;DHT22;37940;53.002;6.930;2022-08-19T01:20:26;14.10;99.90
51914;DHT22;37940;53.002;6.930;2022-08-19T01:22:57;14.10;99.90
51914;DHT22;37940;53.002;6.930;2022-08-19T01:25:32;14.10;99.90
51914;DHT22;37940;53.002;6.930;2022-08-19T01:28:00;14.10;99.90
51914;DHT22;37940;53.002;6.930;2022-08-19T01:30:29;14.10;99.90
51914;DHT22;37940;53.002;6.930;2022-08-19T01:32:56;14.10;99.90
51914;DHT22;37940;53.002;6.930;2022-08-19T01:35:25;14.00;99.90
51914;DHT22;37940;53.002;6.930;2022-08-19T01:37:58;14.00;99.90
51914;DHT22;37940;53.002;6.930;2022-08-19T01:40:27;14.00;99.90
51914;DHT22;37940;53.002;6.930;2022-08-19T01:42:54;14.00;99.90
51914;DHT22;37940;53.002;6.930;2022-08-19T01:45:22;14.00;99.90
51914;DHT22;37940;53.002;6.930;2022-08-19T01:47:48;14.00;99.90
51914;DHT22;37940;53.002;6.930;2022-08-19T01:50:14;14.00;99.90
51914;DHT22;37940;53.002;6.930;2022-08-19T01:52:41;13.90;99.90
51914;DHT22;37940;53.002;6.930;2022-08-19T01:55:10;13.90;99.90
51914;DHT22;37940;53.002;6.930;2022-08-19T01:57:37;13.90;99.90
51914;DHT22;37940;53.002;6.930;2022-08-19T02:00:10;13.90;99.90
51914;DHT22;37940;53.002;6.930;2022-08-19T02:02:36;13.90;99.90
51914;DHT22;37940;53.002;6.930;2022-08-19T02:05:03;13.90;99.90
51914;DHT22;37940;53.002;6.930;2022-08-19T02:07:28;13.80;99.90
51914;DHT22;37940;53.002;6.930;2022-08-19T02:09:54;13.80;99.90
51914;DHT22;37940;53.002;6.930;2022-08-19T02:12:21;13.80;99.90
51914;DHT22;37940;53.002;6.930;2022-08-19T02:14:47;13.80;99.90
51914;DHT22;37940;53.002;6.930;2022-08-19T02:17:13;13.80;99.90
51914;DHT22;37940;53.002;6.930;2022-08-19T02:19:39;13.70;99.90
51914;DHT22;37940;53.002;6.930;2022-08-19T02:22:04;13.70;99.90
51914;DHT22;37940;53.002;6.930;2022-08-19T02:24:30;13.70;99.90
51914;DHT22;37940;53.002;6.930;2022-08-19T02:26:56;13.70;99.90
51914;DHT22;37940;53.002;6.930;2022-08-19T02:29:22;13.70;99.90
51914;DHT22;37940;53.002;6.930;2022-08-19T02:31:48;13.60;99.90
51914;DHT22;37940;53.002;6.930;2022-08-19T02:34:14;13.60;99.90
51914;DHT22;37940;53.002;6.930;2022-08-19T02:36:39;13.60;99.90
51914;DHT22;37940;53.002;6.930;2022-08-19T02:39:05;13.60;99.90
51914;DHT22;37940;53.002;6.930;2022-08-19T02:41:32;13.60;99.90
51914;DHT22;37940;53.002;6.930;2022-08-19T02:44:00;13.60;99.90
51914;DHT22;37940;53.002;6.930;2022-08-19T02:46:31;13.60;99.90
51914;DHT22;37940;53.002;6.930;2022-08-19T02:49:04;13.50;99.90
51914;DHT22;37940;53.002;6.930;2022-08-19T02:51:36;13.50;99.90
51914;DHT22;37940;53.002;6.930;2022-08-19T02:54:03;13.50;99.90
51914;DHT22;37940;53.002;6.930;2022-08-19T02:56:29;13.50;99.90
51914;DHT22;37940;53.002;6.930;2022-08-19T02:58:56;13.50;99.90
51914;DHT22;37940;53.002;6.930;2022-08-19T03:01:28;13.40;99.90
51914;DHT22;37940;53.002;6.930;2022-08-19T03:03:55;13.40;99.90
51914;DHT22;37940;53.002;6.930;2022-08-19T03:06:22;13.40;99.90
51914;DHT22;37940;53.002;6.930;2022-08-19T03:08:48;13.40;99.90
51914;DHT22;37940;53.002;6.930;2022-08-19T03:13:46;13.40;99.90
51914;DHT22;37940;53.002;6.930;2022-08-19T03:16:15;13.40;99.90
51914;DHT22;37940;53.002;6.930;2022-08-19T03:18:41;13.40;99.90
51914;DHT22;37940;53.002;6.930;2022-08-19T03:21:07;13.30;99.90
51914;DHT22;37940;53.002;6.930;2022-08-19T03:23:33;13.30;99.90
51914;DHT22;37940;53.002;6.930;2022-08-19T03:26:03;13.20;99.90
51914;DHT22;37940;53.002;6.930;2022-08-19T03:28:30;13.20;99.90
51914;DHT22;37940;53.002;6.930;2022-08-19T03:31:02;13.20;99.90
51914;DHT22;37940;53.002;6.930;2022-08-19T03:33:29;13.20;99.90
51914;DHT22;37940;53.002;6.930;2022-08-19T03:38:38;13.10;99.90
51914;DHT22;37940;53.002;6.930;2022-08-19T03:41:06;13.10;99.90
51914;DHT22;37940;53.002;6.930;2022-08-19T03:43:36;13.00;99.90
51914;DHT22;37940;53.002;6.930;2022-08-19T03:46:05;13.10;99.90
51914;DHT22;37940;53.002;6.930;2022-08-19T03:48:31;13.00;99.90
51914;DHT22;37940;53.002;6.930;2022-08-19T03:50:58;13.00;99.90
51914;DHT22;37940;53.002;6.930;2022-08-19T03:53:26;13.10;99.90
51914;DHT22;37940;53.002;6.930;2022-08-19T03:55:52;13.00;99.90
51914;DHT22;37940;53.002;6.930;2022-08-19T03:58:19;13.00;99.90
51914;DHT22;37940;53.002;6.930;2022-08-19T04:00:45;13.00;99.90
51914;DHT22;37940;53.002;6.930;2022-08-19T04:03:11;13.00;99.90
51914;DHT22;37940;53.002;6.930;2022-08-19T04:05:36;13.00;99.90
51914;DHT22;37940;53.002;6.930;2022-08-19T04:08:03;13.00;99.90
51914;DHT22;37940;53.002;6.930;2022-08-19T04:10:36;13.00;99.90
51914;DHT22;37940;53.002;6.930;2022-08-19T04:13:03;13.00;99.90
51914;DHT22;37940;53.002;6.930;2022-08-19T04:15:31;12.90;99.90
51914;DHT22;37940;53.002;6.930;2022-08-19T04:18:01;12.90;99.90
51914;DHT22;37940;53.002;6.930;2022-08-19T04:20:26;12.90;99.90
51914;DHT22;37940;53.002;6.930;2022-08-19T04:22:52;12.90;99.90
51914;DHT22;37940;53.002;6.930;2022-08-19T04:25:18;12.80;99.90
51914;DHT22;37940;53.002;6.930;2022-08-19T04:27:44;12.80;99.90
51914;DHT22;37940;53.002;6.930;2022-08-19T04:30:13;12.80;99.90
51914;DHT22;37940;53.002;6.930;2022-08-19T04:32:39;12.80;99.90
51914;DHT22;37940;53.002;6.930;2022-08-19T04:35:05;12.90;99.90
51914;DHT22;37940;53.002;6.930;2022-08-19T04:37:31;12.80;99.90
51914;DHT22;37940;53.002;6.930;2022-08-19T04:39:59;12.80;99.90
51914;DHT22;37940;53.002;6.930;2022-08-19T04:42:43;12.90;99.90
51914;DHT22;37940;53.002;6.930;2022-08-19T04:45:12;12.80;99.90
51914;DHT22;37940;53.002;6.930;2022-08-19T04:47:41;12.80;99.90
51914;DHT22;37940;53.002;6.930;2022-08-19T04:50:08;12.80;99.90
51914;DHT22;37940;53.002;6.930;2022-08-19T04:52:40;12.90;99.90
51914;DHT22;37940;53.002;6.930;2022-08-19T04:55:12;12.90;99.90
51914;DHT22;37940;53.002;6.930;2022-08-19T04:57:39;13.00;99.90
51914;DHT22;37940;53.002;6.930;2022-08-19T05:00:10;13.10;99.90
51914;DHT22;37940;53.002;6.930;2022-08-19T05:02:36;13.10;99.90
51914;DHT22;37940;53.002;6.930;2022-08-19T05:05:03;13.20;99.90
51914;DHT22;37940;53.002;6.930;2022-08-19T05:07:28;13.20;99.90
51914;DHT22;37940;53.002;6.930;2022-08-19T05:09:54;13.20;99.90
51914;DHT22;37940;53.002;6.930;2022-08-19T05:12:20;13.30;99.90
51914;DHT22;37940;53.002;6.930;2022-08-19T05:14:46;13.30;99.90
51914;DHT22;37940;53.002;6.930;2022-08-19T05:17:13;13.30;99.90
51914;DHT22;37940;53.002;6.930;2022-08-19T05:19:39;13.40;99.90
51914;DHT22;37940;53.002;6.930;2022-08-19T05:22:23;13.40;99.90
51914;DHT22;37940;53.002;6.930;2022-08-19T05:24:59;13.50;99.90
51914;DHT22;37940;53.002;6.930;2022-08-19T05:27:25;13.60;99.90
51914;DHT22;37940;53.002;6.930;2022-08-19T05:29:51;13.80;99.90
51914;DHT22;37940;53.002;6.930;2022-08-19T05:32:17;14.10;99.90
51914;DHT22;37940;53.002;6.930;2022-08-19T05:34:42;14.40;99.90
51914;DHT22;37940;53.002;6.930;2022-08-19T05:37:08;14.90;99.90
51914;DHT22;37940;53.002;6.930;2022-08-19T05:39:36;15.40;99.90
51914;DHT22;37940;53.002;6.930;2022-08-19T05:42:05;15.50;99.90
51914;DHT22;37940;53.002;6.930;2022-08-19T05:44:35;15.80;99.90
51914;DHT22;37940;53.002;6.930;2022-08-19T05:47:04;16.00;99.90
51914;DHT22;37940;53.002;6.930;2022-08-19T05:49:31;16.60;99.90
51914;DHT22;37940;53.002;6.930;2022-08-19T05:51:57;17.30;99.90
51914;DHT22;37940;53.002;6.930;2022-08-19T05:54:24;17.70;99.90
51914;DHT22;37940;53.002;6.930;2022-08-19T05:56:51;17.70;99.90
51914;DHT22;37940;53.002;6.930;2022-08-19T05:59:19;17.60;99.90
51914;DHT22;37940;53.002;6.930;2022-08-19T06:01:47;17.60;99.90
51914;DHT22;37940;53.002;6.930;2022-08-19T06:04:17;17.60;99.90
51914;DHT22;37940;53.002;6.930;2022-08-19T06:06:45;17.70;99.90
51914;DHT22;37940;53.002;6.930;2022-08-19T06:09:11;18.10;99.90
51914;DHT22;37940;53.002;6.930;2022-08-19T06:11:45;18.60;99.90
51914;DHT22;37940;53.002;6.930;2022-08-19T06:14:16;18.90;99.90
51914;DHT22;37940;53.002;6.930;2022-08-19T06:16:43;19.10;99.90
51914;DHT22;37940;53.002;6.930;2022-08-19T06:19:12;19.20;99.90
51914;DHT22;37940;53.002;6.930;2022-08-19T06:21:40;19.50;99.90
51914;DHT22;37940;53.002;6.930;2022-08-19T06:24:08;19.80;99.90
51914;DHT22;37940;53.002;6.930;2022-08-19T06:26:36;20.10;99.90
51914;DHT22;37940;53.002;6.930;2022-08-19T06:29:05;20.20;99.90
51914;DHT22;37940;53.002;6.930;2022-08-19T06:31:32;20.60;99.90
51914;DHT22;37940;53.002;6.930;2022-08-19T06:34:03;20.70;99.90
51914;DHT22;37940;53.002;6.930;2022-08-19T06:36:33;20.40;99.90
51914;DHT22;37940;53.002;6.930;2022-08-19T06:39:08;20.20;99.90
51914;DHT22;37940;53.002;6.930;2022-08-19T06:41:43;20.10;99.90
51914;DHT22;37940;53.002;6.930;2022-08-19T06:44:10;19.90;99.90
51914;DHT22;37940;53.002;6.930;2022-08-19T06:46:36;19.80;99.90
51914;DHT22;37940;53.002;6.930;2022-08-19T06:49:02;19.70;99.90
51914;DHT22;37940;53.002;6.930;2022-08-19T06:51:28;19.50;99.90
51914;DHT22;37940;53.002;6.930;2022-08-19T06:53:55;19.40;99.90
51914;DHT22;37940;53.002;6.930;2022-08-19T06:56:27;19.40;99.90
51914;DHT22;37940;53.002;6.930;2022-08-19T06:59:12;19.30;99.90
51914;DHT22;37940;53.002;6.930;2022-08-19T07:01:53;19.30;99.90
51914;DHT22;37940;53.002;6.930;2022-08-19T07:04:29;19.30;99.90
51914;DHT22;37940;53.002;6.930;2022-08-19T07:07:08;19.20;99.90
51914;DHT22;37940;53.002;6.930;2022-08-19T07:09:39;19.20;99.90
51914;DHT22;37940;53.002;6.930;2022-08-19T07:12:07;19.10;99.90
51914;DHT22;37940;53.002;6.930;2022-08-19T07:14:35;19.10;99.90
51914;DHT22;37940;53.002;6.930;2022-08-19T07:17:03;19.20;99.90
51914;DHT22;37940;53.002;6.930;2022-08-19T07:19:29;19.20;99.90
51914;DHT22;37940;53.002;6.930;2022-08-19T07:21:55;19.30;99.90
51914;DHT22;37940;53.002;6.930;2022-08-19T07:24:23;19.30;99.90
51914;DHT22;37940;53.002;6.930;2022-08-19T07:26:51;19.40;99.90
51914;DHT22;37940;53.002;6.930;2022-08-19T07:29:18;19.40;99.90
51914;DHT22;37940;53.002;6.930;2022-08-19T07:31:44;19.50;99.90
51914;DHT22;37940;53.002;6.930;2022-08-19T07:34:12;19.60;99.90
51914;DHT22;37940;53.002;6.930;2022-08-19T07:36:40;19.60;99.90
51914;DHT22;37940;53.002;6.930;2022-08-19T07:39:17;19.70;99.90
51914;DHT22;37940;53.002;6.930;2022-08-19T07:41:44;19.80;99.90
51914;DHT22;37940;53.002;6.930;2022-08-19T07:44:10;19.90;99.90
51914;DHT22;37940;53.002;6.930;2022-08-19T07:46:40;19.90;99.90
51914;DHT22;37940;53.002;6.930;2022-08-19T07:49:07;20.00;99.90
51914;DHT22;37940;53.002;6.930;2022-08-19T07:51:34;20.10;99.90
51914;DHT22;37940;53.002;6.930;2022-08-19T07:53:59;20.20;99.90
51914;DHT22;37940;53.002;6.930;2022-08-19T07:56:25;20.30;99.90
51914;DHT22;37940;53.002;6.930;2022-08-19T07:58:52;20.40;99.90
51914;DHT22;37940;53.002;6.930;2022-08-19T08:01:24;20.60;99.90
51914;DHT22;37940;53.002;6.930;2022-08-19T08:03:52;20.80;99.90
51914;DHT22;37940;53.002;6.930;2022-08-19T08:06:37;20.90;99.90
51914;DHT22;37940;53.002;6.930;2022-08-19T08:09:32;21.10;99.90
51914;DHT22;37940;53.002;6.930;2022-08-19T08:12:05;21.20;99.90
51914;DHT22;37940;53.002;6.930;2022-08-19T08:14:53;21.30;99.90
51914;DHT22;37940;53.002;6.930;2022-08-19T08:17:23;21.40;99.90
51914;DHT22;37940;53.002;6.930;2022-08-19T08:19:49;21.50;99.90
51914;DHT22;37940;53.002;6.930;2022-08-19T08:22:19;21.70;99.90
51914;DHT22;37940;53.002;6.930;2022-08-19T08:25:07;21.90;99.90
51914;DHT22;37940;53.002;6.930;2022-08-19T08:27:41;22.00;99.90
51914;DHT22;37940;53.002;6.930;2022-08-19T08:30:09;22.20;99.90
51914;DHT22;37940;53.002;6.930;2022-08-19T08:32:39;22.30;99.90
51914;DHT22;37940;53.002;6.930;2022-08-19T08:35:06;22.50;99.90
51914;DHT22;37940;53.002;6.930;2022-08-19T08:37:32;22.60;99.90
51914;DHT22;37940;53.002;6.930;2022-08-19T08:39:58;22.70;99.90
51914;DHT22;37940;53.002;6.930;2022-08-19T08:42:36;22.80;99.90
51914;DHT22;37940;53.002;6.930;2022-08-19T08:45:14;23.00;99.90
51914;DHT22;37940;53.002;6.930;2022-08-19T08:47:44;23.10;99.90
51914;DHT22;37940;53.002;6.930;2022-08-19T08:50:27;23.20;99.90
51914;DHT22;37940;53.002;6.930;2022-08-19T08:52:56;23.40;99.90
51914;DHT22;37940;53.002;6.930;2022-08-19T08:55:27;23.50;99.90
51914;DHT22;37940;53.002;6.930;2022-08-19T08:58:10;23.60;99.90
51914;DHT22;37940;53.002;6.930;2022-08-19T09:00:43;23.80;99.90
51914;DHT22;37940;53.002;6.930;2022-08-19T09:06:00;24.10;99.90
51914;DHT22;37940;53.002;6.930;2022-08-19T09:14:23;24.60;99.90
51914;DHT22;37940;53.002;6.930;2022-08-19T09:16:53;24.70;99.90
51914;DHT22;37940;53.002;6.930;2022-08-19T09:19:19;24.90;99.90
51914;DHT22;37940;53.002;6.930;2022-08-19T09:21:45;25.00;99.90
51914;DHT22;37940;53.002;6.930;2022-08-19T09:24:11;25.20;99.90
51914;DHT22;37940;53.002;6.930;2022-08-19T09:26:36;25.30;99.90
51914;DHT22;37940;53.002;6.930;2022-08-19T09:29:02;25.40;99.90
51914;DHT22;37940;53.002;6.930;2022-08-19T09:31:31;25.50;99.90
51914;DHT22;37940;53.002;6.930;2022-08-19T09:33:58;25.60;99.90
51914;DHT22;37940;53.002;6.930;2022-08-19T09:36:27;25.80;99.90
51914;DHT22;37940;53.002;6.930;2022-08-19T09:38:55;25.90;99.90
51914;DHT22;37940;53.002;6.930;2022-08-19T09:41:23;26.00;99.90
51914;DHT22;37940;53.002;6.930;2022-08-19T09:43:51;26.10;99.90
51914;DHT22;37940;53.002;6.930;2022-08-19T09:46:19;26.20;99.90
51914;DHT22;37940;53.002;6.930;2022-08-19T09:48:47;26.40;99.90
51914;DHT22;37940;53.002;6.930;2022-08-19T09:51:22;26.50;99.90
51914;DHT22;37940;53.002;6.930;2022-08-19T09:53:49;26.60;99.90
51914;DHT22;37940;53.002;6.930;2022-08-19T09:56:17;26.50;99.90
51914;DHT22;37940;53.002;6.930;2022-08-19T09:58:44;26.60;99.90
51914;DHT22;37940;53.002;6.930;2022-08-19T10:01:16;26.60;99.90
51914;DHT22;37940;53.002;6.930;2022-08-19T10:03:43;26.70;99.90
51914;DHT22;37940;53.002;6.930;2022-08-19T10:06:12;26.80;99.90
51914;DHT22;37940;53.002;6.930;2022-08-19T10:08:37;26.90;99.90
51914;DHT22;37940;53.002;6.930;2022-08-19T10:11:05;27.10;99.90
51914;DHT22;37940;53.002;6.930;2022-08-19T10:13:32;27.20;99.90
51914;DHT22;37940;53.002;6.930;2022-08-19T10:16:09;27.30;99.90
51914;DHT22;37940;53.002;6.930;2022-08-19T10:18:36;27.30;99.90
51914;DHT22;37940;53.002;6.930;2022-08-19T10:21:15;27.40;99.90
51914;DHT22;37940;53.002;6.930;2022-08-19T10:23:45;27.50;99.90
51914;DHT22;37940;53.002;6.930;2022-08-19T10:26:13;27.50;99.90
51914;DHT22;37940;53.002;6.930;2022-08-19T10:28:39;27.70;99.90
51914;DHT22;37940;53.002;6.930;2022-08-19T10:31:11;27.80;99.90
51914;DHT22;37940;53.002;6.930;2022-08-19T10:33:38;27.90;99.90
51914;DHT22;37940;53.002;6.930;2022-08-19T10:36:07;27.90;99.90
51914;DHT22;37940;53.002;6.930;2022-08-19T10:38:35;27.90;99.90
51914;DHT22;37940;53.002;6.930;2022-08-19T10:41:13;27.80;99.90
51914;DHT22;37940;53.002;6.930;2022-08-19T10:43:40;27.80;99.90
51914;DHT22;37940;53.002;6.930;2022-08-19T10:46:11;27.90;99.90
51914;DHT22;37940;53.002;6.930;2022-08-19T10:48:37;28.00;99.90
51914;DHT22;37940;53.002;6.930;2022-08-19T10:51:03;28.10;99.90
51914;DHT22;37940;53.002;6.930;2022-08-19T10:53:47;28.20;99.90
51914;DHT22;37940;53.002;6.930;2022-08-19T10:56:13;28.30;99.90
51914;DHT22;37940;53.002;6.930;2022-08-19T10:58:58;28.30;99.90
51914;DHT22;37940;53.002;6.930;2022-08-19T11:01:26;28.40;99.90
51914;DHT22;37940;53.002;6.930;2022-08-19T11:03:51;28.50;99.90
51914;DHT22;37940;53.002;6.930;2022-08-19T11:06:18;28.60;99.90
51914;DHT22;37940;53.002;6.930;2022-08-19T11:08:44;28.70;99.90
51914;DHT22;37940;53.002;6.930;2022-08-19T11:11:11;28.70;99.90
51914;DHT22;37940;53.002;6.930;2022-08-19T11:13:39;28.50;99.90
51914;DHT22;37940;53.002;6.930;2022-08-19T11:16:14;28.30;99.90
51914;DHT22;37940;53.002;6.930;2022-08-19T11:18:44;28.30;99.90
51914;DHT22;37940;53.002;6.930;2022-08-19T11:21:16;28.40;99.90
51914;DHT22;37940;53.002;6.930;2022-08-19T11:23:43;28.30;99.90
51914;DHT22;37940;53.002;6.930;2022-08-19T11:26:10;28.40;99.90
51914;DHT22;37940;53.002;6.930;2022-08-19T11:28:36;28.50;99.90
51914;DHT22;37940;53.002;6.930;2022-08-19T11:31:02;28.60;99.90
51914;DHT22;37940;53.002;6.930;2022-08-19T11:33:30;28.60;99.90
51914;DHT22;37940;53.002;6.930;2022-08-19T11:36:34;28.70;99.90
51914;DHT22;37940;53.002;6.930;2022-08-19T11:39:05;29.00;99.90
51914;DHT22;37940;53.002;6.930;2022-08-19T11:41:31;29.20;99.90
51914;DHT22;37940;53.002;6.930;2022-08-19T11:43:58;29.30;99.90
51914;DHT22;37940;53.002;6.930;2022-08-19T11:46:37;29.20;99.80
51914;DHT22;37940;53.002;6.930;2022-08-19T11:49:06;28.90;99.90
51914;DHT22;37940;53.002;6.930;2022-08-19T11:51:41;28.70;99.90
51914;DHT22;37940;53.002;6.930;2022-08-19T11:54:11;28.60;99.90
51914;DHT22;37940;53.002;6.930;2022-08-19T11:56:38;28.40;99.90
51914;DHT22;37940;53.002;6.930;2022-08-19T11:59:04;28.30;99.90
51914;DHT22;37940;53.002;6.930;2022-08-19T12:01:30;28.30;99.90
51914;DHT22;37940;53.002;6.930;2022-08-19T12:03:57;28.20;99.90
51914;DHT22;37940;53.002;6.930;2022-08-19T12:06:31;28.20;99.90
51914;DHT22;37940;53.002;6.930;2022-08-19T12:09:03;28.10;99.90
51914;DHT22;37940;53.002;6.930;2022-08-19T12:11:29;28.00;99.90
51914;DHT22;37940;53.002;6.930;2022-08-19T12:13:55;27.80;99.90
51914;DHT22;37940;53.002;6.930;2022-08-19T12:16:23;27.50;99.90
51914;DHT22;37940;53.002;6.930;2022-08-19T12:18:50;27.30;99.90
51914;DHT22;37940;53.002;6.930;2022-08-19T12:21:20;27.30;99.90
51914;DHT22;37940;53.002;6.930;2022-08-19T12:23:51;27.50;99.90
51914;DHT22;37940;53.002;6.930;2022-08-19T12:26:18;27.70;99.90
51914;DHT22;37940;53.002;6.930;2022-08-19T12:28:44;27.80;99.90
51914;DHT22;37940;53.002;6.930;2022-08-19T12:31:10;27.80;99.90
51914;DHT22;37940;53.002;6.930;2022-08-19T12:33:40;27.80;99.90
51914;DHT22;37940;53.002;6.930;2022-08-19T12:36:09;27.80;99.90
51914;DHT22;37940;53.002;6.930;2022-08-19T12:38:36;27.70;99.90
51914;DHT22;37940;53.002;6.930;2022-08-19T12:41:03;27.60;99.90
51914;DHT22;37940;53.002;6.930;2022-08-19T12:43:32;27.50;99.90
51914;DHT22;37940;53.002;6.930;2022-08-19T12:46:00;27.30;99.90
51914;DHT22;37940;53.002;6.930;2022-08-19T12:48:25;27.20;99.90
51914;DHT22;37940;53.002;6.930;2022-08-19T12:50:51;27.30;99.90
51914;DHT22;37940;53.002;6.930;2022-08-19T12:53:17;27.20;99.90
51914;DHT22;37940;53.002;6.930;2022-08-19T12:55:43;27.00;99.90
51914;DHT22;37940;53.002;6.930;2022-08-19T12:58:09;26.80;99.90
51914;DHT22;37940;53.002;6.930;2022-08-19T13:00:35;26.90;99.90
51914;DHT22;37940;53.002;6.930;2022-08-19T13:03:01;26.90;99.90
51914;DHT22;37940;53.002;6.930;2022-08-19T13:05:29;26.90;99.90
51914;DHT22;37940;53.002;6.930;2022-08-19T13:07:56;26.90;99.90
51914;DHT22;37940;53.002;6.930;2022-08-19T13:10:25;26.80;99.90
51914;DHT22;37940;53.002;6.930;2022-08-19T13:12:53;26.80;99.90
51914;DHT22;37940;53.002;6.930;2022-08-19T13:15:21;26.60;99.90
51914;DHT22;37940;53.002;6.930;2022-08-19T13:17:49;26.50;99.90
51914;DHT22;37940;53.002;6.930;2022-08-19T13:20:16;26.50;99.90
51914;DHT22;37940;53.002;6.930;2022-08-19T13:22:42;26.40;99.90
51914;DHT22;37940;53.002;6.930;2022-08-19T13:25:12;26.40;99.90
51914;DHT22;37940;53.002;6.930;2022-08-19T13:27:39;26.40;99.90
51914;DHT22;37940;53.002;6.930;2022-08-19T13:30:06;26.50;99.90
51914;DHT22;37940;53.002;6.930;2022-08-19T13:32:50;26.70;99.90
51914;DHT22;37940;53.002;6.930;2022-08-19T13:35:35;27.10;99.90
51914;DHT22;37940;53.002;6.930;2022-08-19T13:38:00;27.40;99.90
51914;DHT22;37940;53.002;6.930;2022-08-19T13:40:31;27.70;99.90
51914;DHT22;37940;53.002;6.930;2022-08-19T13:43:00;27.90;99.90
51914;DHT22;37940;53.002;6.930;2022-08-19T13:45:28;28.00;99.90
51914;DHT22;37940;53.002;6.930;2022-08-19T13:47:57;28.00;99.70
51914;DHT22;37940;53.002;6.930;2022-08-19T13:50:27;27.90;98.90
51914;DHT22;37940;53.002;6.930;2022-08-19T13:52:55;27.80;99.00
51914;DHT22;37940;53.002;6.930;2022-08-19T13:55:21;27.80;98.90
51914;DHT22;37940;53.002;6.930;2022-08-19T13:57:55;27.80;99.30
51914;DHT22;37940;53.002;6.930;2022-08-19T14:00:22;27.90;98.00
51914;DHT22;37940;53.002;6.930;2022-08-19T14:02:51;27.90;98.60
51914;DHT22;37940;53.002;6.930;2022-08-19T14:05:18;27.90;98.80
51914;DHT22;37940;53.002;6.930;2022-08-19T14:07:44;27.80;98.10
51914;DHT22;37940;53.002;6.930;2022-08-19T14:10:11;27.80;98.10
51914;DHT22;37940;53.002;6.930;2022-08-19T14:12:37;27.80;98.30
51914;DHT22;37940;53.002;6.930;2022-08-19T14:15:05;27.80;98.00
51914;DHT22;37940;53.002;6.930;2022-08-19T14:17:31;27.70;97.40
51914;DHT22;37940;53.002;6.930;2022-08-19T14:20:01;27.70;97.70
51914;DHT22;37940;53.002;6.930;2022-08-19T14:22:29;27.60;97.70
51914;DHT22;37940;53.002;6.930;2022-08-19T14:24:57;27.60;97.80
51914;DHT22;37940;53.002;6.930;2022-08-19T14:27:23;27.80;98.00
51914;DHT22;37940;53.002;6.930;2022-08-19T14:29:51;27.90;98.30
51914;DHT22;37940;53.002;6.930;2022-08-19T14:32:16;28.10;98.50
51914;DHT22;37940;53.002;6.930;2022-08-19T14:34:42;28.20;97.90
51914;DHT22;37940;53.002;6.930;2022-08-19T14:37:12;28.20;97.70
51914;DHT22;37940;53.002;6.930;2022-08-19T14:39:40;28.10;98.90
51914;DHT22;37940;53.002;6.930;2022-08-19T14:42:08;27.80;99.90
51914;DHT22;37940;53.002;6.930;2022-08-19T14:44:35;27.40;99.90
51914;DHT22;37940;53.002;6.930;2022-08-19T14:47:00;27.10;99.90
51914;DHT22;37940;53.002;6.930;2022-08-19T14:49:26;26.90;99.90
51914;DHT22;37940;53.002;6.930;2022-08-19T14:51:52;26.50;99.90
51914;DHT22;37940;53.002;6.930;2022-08-19T14:54:18;26.30;99.90
51914;DHT22;37940;53.002;6.930;2022-08-19T14:56:43;26.20;99.90
51914;DHT22;37940;53.002;6.930;2022-08-19T14:59:09;26.00;99.90
51914;DHT22;37940;53.002;6.930;2022-08-19T15:01:35;25.90;99.90
51914;DHT22;37940;53.002;6.930;2022-08-19T15:04:02;25.80;99.90
51914;DHT22;37940;53.002;6.930;2022-08-19T15:06:28;25.70;99.90
51914;DHT22;37940;53.002;6.930;2022-08-19T15:08:54;25.60;99.90
51914;DHT22;37940;53.002;6.930;2022-08-19T15:11:23;25.50;99.90
51914;DHT22;37940;53.002;6.930;2022-08-19T15:13:49;25.50;99.90
51914;DHT22;37940;53.002;6.930;2022-08-19T15:16:16;25.40;99.90
51914;DHT22;37940;53.002;6.930;2022-08-19T15:18:42;25.30;99.90
51914;DHT22;37940;53.002;6.930;2022-08-19T15:21:14;25.30;99.90
51914;DHT22;37940;53.002;6.930;2022-08-19T15:23:42;25.20;99.90
51914;DHT22;37940;53.002;6.930;2022-08-19T15:26:07;25.20;99.90
51914;DHT22;37940;53.002;6.930;2022-08-19T15:28:34;25.10;99.90
51914;DHT22;37940;53.002;6.930;2022-08-19T15:31:00;25.10;99.90
51914;DHT22;37940;53.002;6.930;2022-08-19T15:33:26;25.00;99.90
51914;DHT22;37940;53.002;6.930;2022-08-19T15:35:52;24.90;99.90
51914;DHT22;37940;53.002;6.930;2022-08-19T15:38:19;24.70;99.90
51914;DHT22;37940;53.002;6.930;2022-08-19T15:40:46;24.70;99.90
51914;DHT22;37940;53.002;6.930;2022-08-19T15:43:14;24.60;99.90
51914;DHT22;37940;53.002;6.930;2022-08-19T15:45:41;24.50;99.90
51914;DHT22;37940;53.002;6.930;2022-08-19T15:48:07;24.50;99.90
51914;DHT22;37940;53.002;6.930;2022-08-19T15:50:33;24.50;99.90
51914;DHT22;37940;53.002;6.930;2022-08-19T15:53:03;24.40;99.90